createdAt,value
2019-03-26T00:01:06.440Z,71.81
2019-03-26T00:03:36.867Z,72.06
2019-03-26T00:06:08.709Z,72.06
2019-03-26T00:08:39.090Z,72.00
2019-03-26T00:11:10.608Z,72.00
2019-03-26T00:13:41.095Z,71.98
2019-03-26T00:16:11.560Z,72.19
2019-03-26T00:18:42.114Z,72.11
2019-03-26T00:21:12.552Z,72.25
2019-03-26T00:23:42.920Z,72.27
2019-03-26T00:26:13.328Z,72.16
2019-03-26T00:28:43.729Z,72.26
2019-03-26T00:31:14.216Z,72.53
2019-03-26T00:33:44.587Z,72.54
2019-03-26T00:36:14.982Z,72.47
2019-03-26T00:38:45.816Z,72.66
2019-03-26T00:41:16.735Z,72.64
2019-03-26T00:43:48.265Z,72.67
2019-03-26T00:46:18.945Z,72.67
2019-03-26T00:48:49.494Z,72.67
2019-03-26T00:51:19.971Z,72.59
2019-03-26T00:53:50.341Z,72.59
2019-03-26T00:56:20.722Z,73.07
2019-03-26T00:58:51.073Z,72.86
2019-03-26T01:01:21.392Z,73.31
2019-03-26T01:03:54.832Z,73.31
2019-03-26T01:06:24.317Z,73.51
2019-03-26T01:08:54.992Z,73.38
2019-03-26T01:11:25.434Z,73.38
2019-03-26T01:13:55.908Z,72.85
2019-03-26T01:16:27.018Z,72.74
2019-03-26T01:18:57.695Z,72.49
2019-03-26T01:21:28.195Z,72.22
2019-03-26T01:23:58.607Z,72.22
2019-03-26T01:26:28.943Z,72.09
2019-03-26T01:28:59.355Z,72.25
2019-03-26T01:31:30.034Z,72.30
2019-03-26T01:34:01.445Z,72.15
2019-03-26T01:36:31.922Z,72.43
2019-03-26T01:39:02.720Z,72.28
2019-03-26T01:41:34.204Z,72.16
2019-03-26T01:44:04.762Z,71.97
2019-03-26T01:46:35.228Z,71.98
2019-03-26T01:49:06.609Z,72.17
2019-03-26T01:51:37.031Z,72.16
2019-03-26T01:54:07.448Z,72.47
2019-03-26T01:56:38.276Z,72.47
2019-03-26T01:59:08.667Z,72.35
2019-03-26T02:01:39.125Z,72.43
2019-03-26T02:04:09.630Z,72.46
2019-03-26T02:06:40.158Z,72.47
2019-03-26T02:09:10.943Z,72.37
2019-03-26T02:11:41.447Z,72.73
2019-03-26T02:14:11.857Z,72.73
2019-03-26T02:16:42.601Z,72.34
2019-03-26T02:19:13.035Z,72.78
2019-03-26T02:21:44.154Z,72.27
2019-03-26T02:24:14.510Z,72.51
2019-03-26T02:26:44.912Z,72.50
2019-03-26T02:29:15.309Z,72.24
2019-03-26T02:31:46.100Z,71.67
2019-03-26T02:34:16.630Z,72.06
2019-03-26T02:36:46.991Z,71.89
2019-03-26T02:39:17.527Z,71.87
2019-03-26T02:41:48.138Z,71.79
2019-03-26T02:44:18.919Z,71.69
2019-03-26T02:46:49.253Z,71.67
2019-03-26T02:49:19.571Z,71.71
2019-03-26T02:51:49.862Z,71.75
2019-03-26T02:54:20.230Z,71.75
2019-03-26T02:56:50.691Z,71.61
2019-03-26T02:59:22.145Z,71.43
2019-03-26T03:01:53.601Z,71.40
2019-03-26T03:04:24.060Z,71.41
2019-03-26T03:06:54.373Z,71.31
2019-03-26T03:09:24.729Z,71.25
2019-03-26T03:11:55.115Z,71.02
2019-03-26T03:14:25.502Z,70.87
2019-03-26T03:16:55.917Z,70.96
2019-03-26T03:19:26.344Z,70.39
2019-03-26T03:21:56.626Z,70.39
2019-03-26T03:24:27.042Z,70.12
2019-03-26T03:26:57.626Z,70.69
2019-03-26T03:29:28.067Z,70.41
2019-03-26T03:31:58.766Z,70.41
2019-03-26T03:34:29.050Z,70.43
2019-03-26T03:36:59.403Z,70.43
2019-03-26T03:39:29.715Z,70.36
2019-03-26T03:42:00.403Z,70.35
2019-03-26T03:44:30.756Z,70.40
2019-03-26T03:47:02.923Z,70.41
2019-03-26T03:49:39.087Z,70.51
2019-03-26T03:52:11.709Z,70.66
2019-03-26T03:54:44.578Z,70.62
2019-03-26T03:57:17.801Z,70.20
2019-03-26T03:59:48.843Z,70.20
2019-03-26T04:02:19.240Z,70.65
2019-03-26T04:04:49.621Z,70.65
2019-03-26T04:07:20.106Z,70.68
2019-03-26T04:09:50.435Z,70.68
2019-03-26T04:12:20.835Z,70.67
2019-03-26T04:14:51.555Z,70.58
2019-03-26T04:17:21.861Z,70.58
2019-03-26T04:19:52.235Z,70.56
2019-03-26T04:22:22.662Z,70.49
2019-03-26T04:24:53.549Z,70.39
2019-03-26T04:27:24.210Z,70.40
2019-03-26T04:29:54.664Z,70.16
2019-03-26T04:32:25.326Z,70.16
2019-03-26T04:34:55.709Z,70.21
2019-03-26T04:37:27.079Z,70.09
2019-03-26T04:39:57.766Z,70.30
2019-03-26T04:42:28.254Z,70.04
2019-03-26T04:44:58.624Z,70.02
2019-03-26T04:47:29.043Z,69.93
2019-03-26T04:49:59.573Z,70.00
2019-03-26T04:52:30.205Z,69.88
2019-03-26T04:55:00.533Z,69.88
2019-03-26T04:57:30.997Z,69.82
2019-03-26T05:00:01.647Z,69.67
2019-03-26T05:02:33.004Z,69.67
2019-03-26T05:05:03.520Z,69.56
2019-03-26T05:07:33.967Z,69.51
2019-03-26T05:10:04.681Z,69.51
2019-03-26T05:12:35.026Z,69.61
2019-03-26T05:15:05.917Z,69.49
2019-03-26T05:17:36.692Z,69.56
2019-03-26T05:20:08.195Z,69.46
2019-03-26T05:22:39.478Z,69.43
2019-03-26T05:25:10.220Z,69.40
2019-03-26T05:27:45.706Z,69.38
2019-03-26T05:30:13.529Z,69.27
2019-03-26T05:32:43.896Z,69.14
2019-03-26T05:35:14.743Z,69.09
2019-03-26T05:37:45.076Z,69.12
2019-03-26T05:40:15.914Z,69.00
2019-03-26T05:42:46.344Z,69.00
2019-03-26T05:45:17.127Z,69.04
2019-03-26T05:47:47.638Z,68.86
2019-03-26T05:50:18.316Z,68.86
2019-03-26T05:52:48.859Z,69.13
2019-03-26T05:55:19.957Z,68.58
2019-03-26T05:57:51.262Z,69.02
2019-03-26T06:00:26.749Z,68.97
2019-03-26T06:02:57.294Z,68.97
2019-03-26T06:05:27.723Z,68.96
2019-03-26T06:07:58.136Z,68.96
2019-03-26T06:10:28.518Z,68.96
2019-03-26T06:12:59.563Z,68.82
2019-03-26T06:15:29.966Z,68.65
2019-03-26T06:18:00.316Z,68.65
2019-03-26T06:20:30.636Z,68.80
2019-03-26T06:23:01.435Z,68.87
2019-03-26T06:25:31.912Z,68.88
2019-03-26T06:28:02.648Z,68.89
2019-03-26T06:30:33.081Z,68.87
2019-03-26T06:33:04.103Z,68.83
2019-03-26T06:35:34.740Z,68.70
2019-03-26T06:38:06.258Z,68.69
2019-03-26T06:40:37.271Z,68.47
2019-03-26T06:43:07.671Z,68.61
2019-03-26T06:45:38.253Z,68.61
2019-03-26T06:48:08.682Z,68.39
2019-03-26T06:50:40.240Z,68.41
2019-03-26T06:53:10.962Z,68.41
2019-03-26T06:55:41.508Z,68.46
2019-03-26T06:58:12.046Z,68.74
2019-03-26T07:00:43.089Z,68.91
2019-03-26T07:03:13.529Z,68.89
2019-03-26T07:05:43.939Z,69.00
2019-03-26T07:08:14.438Z,68.99
2019-03-26T07:10:44.766Z,68.86
2019-03-26T07:13:15.459Z,68.76
2019-03-26T07:15:45.793Z,68.86
2019-03-26T07:18:16.374Z,68.78
2019-03-26T07:20:46.833Z,68.71
2019-03-26T07:23:17.423Z,68.92
2019-03-26T07:25:47.910Z,68.94
2019-03-26T07:28:19.533Z,68.80
2019-03-26T07:30:50.340Z,68.51
2019-03-26T07:33:20.834Z,68.37
2019-03-26T07:35:51.329Z,68.55
2019-03-26T07:38:21.753Z,68.33
2019-03-26T07:40:53.168Z,67.74
2019-03-26T07:43:23.670Z,67.45
2019-03-26T07:45:54.103Z,67.63
2019-03-26T07:48:24.956Z,68.03
2019-03-26T07:50:55.399Z,68.25
2019-03-26T07:53:26.055Z,67.88
2019-03-26T07:55:56.505Z,67.27
2019-03-26T07:58:26.965Z,66.75
2019-03-26T08:00:57.812Z,66.61
2019-03-26T08:03:28.361Z,66.46
2019-03-26T08:05:58.714Z,66.42
2019-03-26T08:08:29.139Z,66.30
2019-03-26T08:10:59.431Z,65.70
2019-03-26T08:13:29.950Z,65.70
2019-03-26T08:16:00.858Z,65.85
2019-03-26T08:18:31.358Z,66.02
2019-03-26T08:21:01.704Z,66.17
2019-03-26T08:23:32.556Z,66.21
2019-03-26T08:26:02.983Z,66.32
2019-03-26T08:28:33.365Z,66.37
2019-03-26T08:31:03.870Z,65.97
2019-03-26T08:33:34.303Z,65.59
2019-03-26T08:36:05.582Z,65.38
2019-03-26T08:38:36.065Z,65.27
2019-03-26T08:41:06.541Z,65.39
2019-03-26T08:43:36.994Z,65.26
2019-03-26T08:46:07.598Z,65.59
2019-03-26T08:48:37.992Z,65.35
2019-03-26T08:51:08.885Z,65.10
2019-03-26T08:53:39.327Z,65.33
2019-03-26T08:56:11.027Z,65.84
2019-03-26T08:58:41.882Z,65.71
2019-03-26T09:01:12.289Z,65.26
2019-03-26T09:03:42.579Z,65.06
2019-03-26T09:06:13.149Z,64.72
2019-03-26T09:08:43.580Z,64.55
2019-03-26T09:11:13.984Z,64.50
2019-03-26T09:13:44.380Z,64.67
2019-03-26T09:16:14.805Z,64.67
2019-03-26T09:18:45.553Z,64.49
2019-03-26T09:21:15.983Z,64.21
2019-03-26T09:23:46.386Z,64.26
2019-03-26T09:26:17.011Z,64.28
2019-03-26T09:28:48.011Z,64.11
2019-03-26T09:31:18.639Z,63.51
2019-03-26T09:33:49.099Z,63.30
2019-03-26T09:36:19.581Z,63.06
2019-03-26T09:38:50.001Z,63.06
2019-03-26T09:41:20.639Z,63.02
2019-03-26T09:43:51.042Z,63.16
2019-03-26T09:46:21.599Z,62.79
2019-03-26T09:48:51.929Z,62.79
2019-03-26T09:51:22.362Z,62.80
2019-03-26T09:53:53.010Z,62.63
2019-03-26T09:56:30.623Z,61.67
2019-03-26T09:58:57.002Z,61.19
2019-03-26T10:01:27.494Z,62.05
2019-03-26T10:03:58.124Z,62.75
2019-03-26T10:06:28.535Z,63.39
2019-03-26T10:08:59.103Z,63.76
2019-03-26T10:11:29.613Z,64.12
2019-03-26T10:14:00.609Z,64.33
2019-03-26T10:16:30.996Z,64.41
2019-03-26T10:19:01.587Z,64.63
2019-03-26T10:21:32.011Z,64.79
2019-03-26T10:24:02.318Z,65.02
2019-03-26T10:26:32.732Z,65.07
2019-03-26T10:29:18.768Z,65.21
2019-03-26T10:31:35.792Z,65.32
2019-03-26T10:34:06.382Z,65.09
2019-03-26T10:36:37.386Z,64.93
2019-03-26T10:39:08.630Z,64.87
2019-03-26T10:41:39.357Z,64.66
2019-03-26T10:44:09.784Z,64.16
2019-03-26T10:46:40.172Z,63.58
2019-03-26T10:49:10.535Z,63.35
2019-03-26T10:51:40.880Z,62.98
2019-03-26T10:54:11.383Z,62.82
2019-03-26T10:56:42.225Z,63.16
2019-03-26T10:59:12.548Z,63.63
2019-03-26T11:01:42.923Z,64.04
2019-03-26T11:04:13.407Z,63.76
2019-03-26T11:06:43.777Z,63.69
2019-03-26T11:09:23.297Z,63.72
2019-03-26T11:11:46.407Z,63.36
2019-03-26T11:14:16.842Z,62.83
2019-03-26T11:16:47.426Z,62.57
2019-03-26T11:19:17.901Z,62.37
2019-03-26T11:21:48.262Z,62.65
2019-03-26T11:24:18.583Z,63.15
2019-03-26T11:26:49.091Z,63.39
2019-03-26T11:29:20.285Z,63.59
2019-03-26T11:31:50.917Z,63.51
2019-03-26T11:34:21.453Z,63.35
2019-03-26T11:36:51.789Z,63.23
2019-03-26T11:39:32.118Z,63.26
2019-03-26T11:41:54.573Z,63.05
2019-03-26T11:44:24.992Z,63.09
2019-03-26T11:46:55.439Z,63.09
2019-03-26T11:49:26.073Z,63.10
2019-03-26T11:51:56.540Z,62.73
2019-03-26T11:54:27.051Z,62.47
2019-03-26T11:56:57.490Z,62.71
2019-03-26T11:59:28.084Z,62.52
2019-03-26T12:01:58.577Z,62.15
2019-03-26T12:04:29.874Z,61.68
2019-03-26T12:07:00.282Z,61.50
2019-03-26T12:09:30.759Z,61.49
2019-03-26T12:12:01.262Z,61.34
2019-03-26T12:14:31.631Z,61.45
2019-03-26T12:17:02.095Z,61.87
2019-03-26T12:19:32.520Z,62.21
2019-03-26T12:22:02.963Z,62.23
2019-03-26T12:24:33.316Z,62.15
2019-03-26T12:27:03.634Z,62.27
2019-03-26T12:29:34.020Z,62.52
2019-03-26T12:32:05.024Z,62.59
2019-03-26T12:34:35.486Z,62.84
2019-03-26T12:37:06.029Z,62.94
2019-03-26T12:39:36.474Z,63.15
2019-03-26T12:42:06.938Z,63.35
2019-03-26T12:44:37.464Z,63.58
2019-03-26T12:47:12.396Z,63.95
2019-03-26T12:49:42.852Z,63.95
2019-03-26T12:52:13.273Z,63.71
2019-03-26T12:54:44.338Z,63.83
2019-03-26T12:57:14.870Z,63.94
2019-03-26T12:59:45.329Z,63.93
2019-03-26T13:02:15.962Z,63.83
2019-03-26T13:04:46.390Z,63.54
2019-03-26T13:07:16.858Z,63.08
2019-03-26T13:09:47.323Z,62.97
2019-03-26T13:12:17.828Z,63.57
2019-03-26T13:14:48.533Z,64.27
2019-03-26T13:17:19.063Z,64.52
2019-03-26T13:19:49.525Z,64.77
2019-03-26T13:22:20.065Z,64.92
2019-03-26T13:24:50.723Z,65.26
2019-03-26T13:27:21.384Z,65.31
2019-03-26T13:29:51.784Z,65.29
2019-03-26T13:32:23.186Z,65.24
2019-03-26T13:34:53.642Z,65.06
2019-03-26T13:37:24.215Z,65.18
2019-03-26T13:39:54.762Z,66.01
2019-03-26T13:42:25.144Z,66.44
2019-03-26T13:44:55.420Z,66.40
2019-03-26T13:47:25.938Z,66.03
2019-03-26T13:49:56.334Z,65.81
2019-03-26T13:52:28.119Z,65.82
2019-03-26T13:54:59.980Z,65.71
2019-03-26T13:57:30.431Z,65.35
2019-03-26T14:00:00.912Z,65.42
2019-03-26T14:02:31.596Z,65.27
2019-03-26T14:05:02.004Z,64.94
2019-03-26T14:07:32.473Z,64.75
2019-03-26T14:10:03.044Z,65.03
2019-03-26T14:12:34.420Z,65.35
2019-03-26T14:15:05.227Z,65.37
2019-03-26T14:17:35.956Z,65.36
2019-03-26T14:20:07.306Z,65.16
2019-03-26T14:22:37.778Z,65.12
2019-03-26T14:25:08.700Z,64.94
2019-03-26T14:27:39.144Z,64.61
2019-03-26T14:30:10.887Z,64.57
2019-03-26T14:32:41.450Z,64.81
2019-03-26T14:35:12.159Z,65.19
2019-03-26T14:37:51.036Z,65.51
2019-03-26T14:40:14.957Z,65.79
2019-03-26T14:42:47.437Z,65.93
2019-03-26T14:45:17.937Z,66.24
2019-03-26T14:47:48.306Z,66.42
2019-03-26T14:50:20.354Z,66.08
2019-03-26T14:52:51.877Z,65.80
2019-03-26T14:55:22.248Z,65.67
2019-03-26T14:57:53.538Z,65.60
2019-03-26T15:00:24.021Z,65.45
2019-03-26T15:02:54.830Z,65.38
2019-03-26T15:05:25.309Z,65.24
2019-03-26T15:07:56.564Z,65.21
2019-03-26T15:10:28.209Z,65.22
2019-03-26T15:12:59.053Z,65.30
2019-03-26T15:15:30.706Z,65.24
2019-03-26T15:18:01.243Z,65.01
2019-03-26T15:20:31.951Z,64.90
2019-03-26T15:23:02.740Z,65.00
2019-03-26T15:25:33.161Z,65.21
2019-03-26T15:28:03.595Z,65.33
2019-03-26T15:30:34.262Z,65.34
2019-03-26T15:33:05.599Z,65.39
2019-03-26T15:35:36.165Z,65.48
2019-03-26T15:38:06.859Z,65.48
2019-03-26T15:40:37.259Z,65.45
2019-03-26T15:43:09.701Z,65.41
2019-03-26T15:45:41.838Z,65.37
2019-03-26T15:48:15.363Z,65.41
2019-03-26T15:50:47.989Z,65.61
2019-03-26T15:53:21.056Z,65.59
2019-03-26T15:55:52.918Z,65.64
2019-03-26T15:58:26.765Z,65.52
2019-03-26T16:00:59.896Z,65.52
2019-03-26T16:03:30.358Z,65.58
2019-03-26T16:06:01.125Z,65.72
2019-03-26T16:08:31.832Z,65.68
2019-03-26T16:11:02.307Z,65.57
2019-03-26T16:13:35.732Z,65.53
2019-03-26T16:16:07.956Z,65.58
2019-03-26T16:18:38.318Z,65.65
2019-03-26T16:21:08.740Z,65.66
2019-03-26T16:23:39.325Z,65.52
2019-03-26T16:26:10.017Z,65.57
2019-03-26T16:28:40.539Z,65.49
2019-03-26T16:31:10.904Z,65.68
2019-03-26T16:33:41.289Z,65.60
2019-03-26T16:36:12.695Z,65.42
2019-03-26T16:38:43.169Z,65.36
2019-03-26T16:41:14.067Z,65.66
2019-03-26T16:43:44.567Z,65.69
2019-03-26T16:46:15.252Z,65.66
2019-03-26T16:48:46.008Z,65.66
2019-03-26T16:51:16.368Z,65.61
2019-03-26T16:53:46.928Z,65.66
2019-03-26T16:56:17.897Z,65.71
2019-03-26T16:58:48.482Z,65.67
2019-03-26T17:01:19.042Z,65.68
2019-03-26T17:03:49.520Z,65.79
2019-03-26T17:06:21.016Z,65.91
2019-03-26T17:08:51.466Z,65.94
2019-03-26T17:11:22.029Z,66.22
2019-03-26T17:13:52.662Z,66.23
2019-03-26T17:16:23.306Z,66.27
2019-03-26T17:18:54.111Z,66.28
2019-03-26T17:21:24.666Z,66.34
2019-03-26T17:23:55.340Z,66.24
2019-03-26T17:26:26.149Z,66.45
2019-03-26T17:28:56.532Z,66.63
2019-03-26T17:31:26.906Z,66.65
2019-03-26T17:33:57.939Z,66.59
2019-03-26T17:36:28.654Z,66.59
2019-03-26T17:38:59.015Z,66.67
2019-03-26T17:41:29.831Z,66.71
2019-03-26T17:44:00.684Z,67.08
2019-03-26T17:46:31.083Z,67.25
2019-03-26T17:49:02.444Z,67.23
2019-03-26T17:51:32.826Z,67.32
2019-03-26T17:54:03.458Z,67.12
2019-03-26T17:56:33.869Z,67.28
2019-03-26T17:59:06.790Z,67.32
2019-03-26T18:01:37.136Z,67.28
2019-03-26T18:04:07.743Z,67.52
2019-03-26T18:06:38.097Z,67.59
2019-03-26T18:09:09.176Z,67.52
2019-03-26T18:11:39.834Z,67.73
2019-03-26T18:14:10.315Z,67.70
2019-03-26T18:16:40.814Z,67.77
2019-03-26T18:19:11.348Z,67.95
2019-03-26T18:21:51.560Z,68.13
2019-03-26T18:24:13.949Z,68.20
2019-03-26T18:26:44.335Z,68.39
2019-03-26T18:29:14.888Z,68.42
2019-03-26T18:31:45.186Z,68.43
2019-03-26T18:34:15.739Z,68.54
2019-03-26T18:36:46.048Z,68.58
2019-03-26T18:39:16.515Z,68.78
2019-03-26T18:41:46.973Z,68.80
2019-03-26T18:44:17.522Z,68.98
2019-03-26T18:46:48.050Z,69.17
2019-03-26T18:49:19.587Z,69.26
2019-03-26T18:51:50.153Z,69.38
2019-03-26T18:54:20.949Z,69.49
2019-03-26T18:56:51.438Z,69.65
2019-03-26T18:59:23.185Z,69.63
2019-03-26T19:01:53.585Z,69.54
2019-03-26T19:04:24.261Z,69.50
2019-03-26T19:06:54.747Z,69.49
2019-03-26T19:09:31.823Z,69.40
2019-03-26T19:12:02.462Z,69.38
2019-03-26T19:14:33.399Z,69.42
2019-03-26T19:17:03.846Z,69.36
2019-03-26T19:19:34.391Z,69.40
2019-03-26T19:22:06.586Z,69.58
2019-03-26T19:24:37.087Z,69.53
2019-03-26T19:27:07.588Z,69.52
2019-03-26T19:29:38.094Z,69.70
2019-03-26T19:32:08.612Z,69.61
2019-03-26T19:34:38.938Z,69.62
2019-03-26T19:37:09.396Z,69.62
2019-03-26T19:39:39.774Z,69.68
2019-03-26T19:42:10.348Z,69.69
2019-03-26T19:44:41.962Z,69.64
2019-03-26T19:47:13.046Z,69.62
2019-03-26T19:49:43.496Z,69.55
2019-03-26T19:52:13.950Z,69.32
2019-03-26T19:54:44.460Z,69.35
2019-03-26T19:57:14.806Z,69.35
2019-03-26T19:59:45.247Z,69.55
2019-03-26T20:02:15.682Z,69.72
2019-03-26T20:04:46.110Z,69.66
2019-03-26T20:07:16.625Z,69.63
2019-03-26T20:09:47.567Z,69.84
2019-03-26T20:12:17.979Z,70.00
2019-03-26T20:14:48.541Z,70.01
2019-03-26T20:17:19.061Z,70.27
2019-03-26T20:19:49.899Z,70.57
2019-03-26T20:22:20.259Z,70.70
2019-03-26T20:24:51.166Z,70.83
2019-03-26T20:27:21.772Z,71.10
2019-03-26T20:29:52.720Z,71.03
2019-03-26T20:32:23.175Z,71.18
2019-03-26T20:34:55.026Z,70.99
2019-03-26T20:37:25.593Z,71.10
2019-03-26T20:39:56.016Z,71.28
2019-03-26T20:42:26.419Z,71.43
2019-03-26T20:44:57.064Z,71.20
2019-03-26T20:47:27.589Z,71.44
2019-03-26T20:49:57.911Z,71.40
2019-03-26T20:52:28.386Z,71.41
2019-03-26T20:54:59.144Z,71.40
2019-03-26T20:57:30.472Z,71.33
2019-03-26T21:00:00.902Z,71.27
2019-03-26T21:02:31.222Z,71.29
2019-03-26T21:05:01.750Z,71.28
2019-03-26T21:07:32.158Z,71.40
2019-03-26T21:10:02.787Z,71.56
2019-03-26T21:12:33.293Z,71.67
2019-03-26T21:15:03.948Z,71.65
2019-03-26T21:17:34.616Z,71.66
2019-03-26T21:20:06.349Z,71.67
2019-03-26T21:22:36.760Z,71.67
2019-03-26T21:25:07.961Z,71.65
2019-03-26T21:27:38.366Z,71.82
2019-03-26T21:30:13.980Z,71.62
2019-03-26T21:32:43.622Z,71.75
2019-03-26T21:35:15.363Z,71.79
2019-03-26T21:37:45.810Z,71.94
2019-03-26T21:40:18.770Z,72.13
2019-03-26T21:42:49.125Z,72.06
2019-03-26T21:45:26.099Z,72.11
2019-03-26T21:47:58.422Z,72.09
2019-03-26T21:50:28.727Z,72.17
2019-03-26T21:52:59.025Z,72.35
2019-03-26T21:55:29.604Z,72.42
2019-03-26T21:58:00.437Z,72.24
2019-03-26T22:00:30.820Z,72.12
2019-03-26T22:03:01.791Z,72.18
2019-03-26T22:05:32.261Z,72.10
2019-03-26T22:08:02.791Z,72.08
2019-03-26T22:10:34.097Z,72.21
2019-03-26T22:13:07.578Z,72.07
2019-03-26T22:15:38.469Z,72.18
2019-03-26T22:18:09.187Z,72.08
2019-03-26T22:20:39.575Z,71.98
2019-03-26T22:23:09.956Z,72.16
2019-03-26T22:25:40.846Z,72.11
2019-03-26T22:28:11.603Z,72.09
2019-03-26T22:30:42.025Z,72.05
2019-03-26T22:33:12.353Z,72.01
2019-03-26T22:35:43.173Z,71.96
2019-03-26T22:38:13.817Z,72.07
2019-03-26T22:40:44.850Z,72.08
2019-03-26T22:43:15.436Z,72.08
2019-03-26T22:45:50.983Z,72.15
2019-03-26T22:48:21.511Z,72.05
2019-03-26T22:50:52.347Z,72.36
2019-03-26T22:53:24.096Z,72.36
2019-03-26T22:55:57.654Z,72.14
2019-03-26T22:58:30.180Z,72.21
2019-03-26T23:01:03.384Z,72.21
2019-03-26T23:03:33.647Z,72.26
2019-03-26T23:06:05.738Z,72.40
2019-03-26T23:08:37.295Z,72.29
2019-03-26T23:11:08.011Z,72.26
2019-03-26T23:13:38.515Z,72.23
2019-03-26T23:16:11.313Z,72.28
2019-03-26T23:18:41.838Z,72.13
2019-03-26T23:21:12.324Z,72.04
2019-03-26T23:23:42.739Z,72.01
2019-03-26T23:26:13.197Z,71.91
2019-03-26T23:28:43.587Z,71.86
2019-03-26T23:31:14.019Z,71.97
2019-03-26T23:33:44.565Z,71.98
2019-03-26T23:36:14.914Z,72.15
2019-03-26T23:38:45.403Z,72.19
2019-03-26T23:41:16.098Z,72.15
2019-03-26T23:43:46.627Z,72.21
2019-03-26T23:46:17.002Z,72.29
2019-03-26T23:48:47.656Z,72.42
2019-03-26T23:51:17.987Z,72.43
2019-03-26T23:53:48.357Z,72.56
2019-03-26T23:56:19.766Z,72.72
2019-03-26T23:58:50.081Z,72.59
